createdAt,value
2023-05-16T00:00:53.303Z,102026.91
2023-05-16T00:06:07.139Z,102028.34
2023-05-16T00:08:36.671Z,102031.53
2023-05-16T00:11:10.768Z,102035.84
2023-05-16T00:13:42.366Z,102030.63
2023-05-16T00:16:13.161Z,102033.56
2023-05-16T00:18:45.827Z,102039.53
2023-05-16T00:21:17.485Z,102031.06
2023-05-16T00:23:44.268Z,102037.16
2023-05-16T00:26:10.705Z,102035.88
2023-05-16T00:28:41.180Z,102038.91
2023-05-16T00:31:07.586Z,102035.94
2023-05-16T00:33:34.172Z,102035.41
2023-05-16T00:36:06.305Z,102036.03
2023-05-16T00:38:32.663Z,102028.69
2023-05-16T00:40:59.047Z,102032.56
2023-05-16T00:43:27.839Z,102035.56
2023-05-16T00:45:57.936Z,102040.75
2023-05-16T00:48:33.136Z,102035.19
2023-05-16T00:51:00.725Z,102039.28
2023-05-16T00:53:27.275Z,102042.03
2023-05-16T00:56:06.176Z,102041.91
2023-05-16T01:01:19.006Z,102043.72
2023-05-16T01:03:49.477Z,102044.53
2023-05-16T01:06:17.247Z,102043.25
2023-05-16T01:08:49.568Z,102047.78
2023-05-16T01:11:34.600Z,102036.88
2023-05-16T01:14:42.519Z,102042.88
2023-05-16T01:17:29.636Z,102040.75
2023-05-16T01:20:09.028Z,102041.97
2023-05-16T01:22:52.068Z,102051.75
2023-05-16T01:25:54.498Z,102046.16
2023-05-16T01:28:21.272Z,102045.72
2023-05-16T01:30:47.645Z,102048.31
2023-05-16T01:33:17.650Z,102040.72
2023-05-16T01:36:17.003Z,102046.09
2023-05-16T01:39:01.219Z,102039.31
2023-05-16T01:42:03.593Z,102042.06
2023-05-16T01:44:32.863Z,102052.06
2023-05-16T01:47:02.878Z,102056.84
2023-05-16T01:49:42.488Z,102051.88
2023-05-16T01:52:16.169Z,102062.34
2023-05-16T01:54:48.720Z,102058.31
2023-05-16T01:57:18.348Z,102055.94
2023-05-16T01:59:51.272Z,102060.59
2023-05-16T02:02:20.878Z,102067.72
2023-05-16T02:04:47.567Z,102059.28
2023-05-16T02:07:16.320Z,102062.13
2023-05-16T02:09:45.518Z,102066.69
2023-05-16T02:12:11.907Z,102070.09
2023-05-16T02:14:47.406Z,102070.22
2023-05-16T02:17:13.797Z,102071.31
2023-05-16T02:19:40.209Z,102064.56
2023-05-16T02:22:06.578Z,102074.31
2023-05-16T02:24:32.984Z,102071.69
2023-05-16T02:26:59.887Z,102069.31
2023-05-16T02:29:35.090Z,102075.47
2023-05-16T02:32:01.529Z,102077.28
2023-05-16T02:34:40.291Z,102078.22
2023-05-16T02:37:10.201Z,102077.28
2023-05-16T02:39:41.390Z,102075.84
2023-05-16T02:42:08.102Z,102075.59
2023-05-16T02:44:34.497Z,102079.06
2023-05-16T02:47:01.428Z,102079.19
2023-05-16T02:49:32.266Z,102077.66
2023-05-16T02:52:01.189Z,102086.44
2023-05-16T02:54:30.451Z,102082.28
2023-05-16T02:56:56.948Z,102089.28
2023-05-16T02:59:27.721Z,102085.75
2023-05-16T03:01:54.150Z,102093.00
2023-05-16T03:04:20.554Z,102091.19
2023-05-16T03:06:52.340Z,102095.59
2023-05-16T03:09:19.414Z,102098.34
2023-05-16T03:11:48.944Z,102095.00
2023-05-16T03:14:21.385Z,102099.16
2023-05-16T03:16:48.209Z,102095.72
2023-05-16T03:22:00.911Z,102098.81
2023-05-16T03:24:27.413Z,102103.09
2023-05-16T03:26:53.972Z,102104.88
2023-05-16T03:29:30.300Z,102104.88
2023-05-16T03:31:56.980Z,102110.34
2023-05-16T03:34:26.511Z,102114.03
2023-05-16T03:36:56.114Z,102114.28
2023-05-16T03:39:30.136Z,102107.22
2023-05-16T03:41:57.159Z,102107.22
2023-05-16T03:44:23.625Z,102110.56
2023-05-16T03:46:54.144Z,102113.91
2023-05-16T03:49:36.059Z,102115.56
2023-05-16T03:52:03.838Z,102122.47
2023-05-16T03:54:37.771Z,102124.13
2023-05-16T03:57:07.312Z,102128.28
2023-05-16T03:59:34.546Z,102125.44
2023-05-16T04:02:08.403Z,102129.38
2023-05-16T04:04:34.769Z,102126.88
2023-05-16T04:07:04.986Z,102133.66
2023-05-16T04:09:34.150Z,102132.59
2023-05-16T04:12:02.286Z,102129.72
2023-05-16T04:14:34.159Z,102131.03
2023-05-16T04:17:00.633Z,102123.66
2023-05-16T04:19:27.092Z,102129.59
2023-05-16T04:21:59.940Z,102122.41
2023-05-16T04:24:28.815Z,102129.16
2023-05-16T04:26:58.292Z,102132.00
2023-05-16T04:29:29.386Z,102139.59
2023-05-16T04:32:05.827Z,102136.56
2023-05-16T04:34:33.979Z,102129.69
2023-05-16T04:37:09.659Z,102133.44
2023-05-16T04:39:44.048Z,102128.34
2023-05-16T04:42:13.280Z,102138.91
2023-05-16T04:44:39.676Z,102142.50
2023-05-16T04:47:07.981Z,102137.41
2023-05-16T04:49:37.180Z,102141.38
2023-05-16T04:52:06.742Z,102147.28
2023-05-16T04:54:33.152Z,102144.97
2023-05-16T04:56:59.568Z,102142.81
2023-05-16T04:59:26.201Z,102144.88
2023-05-16T05:02:01.589Z,102144.59
2023-05-16T05:04:28.072Z,102143.97
2023-05-16T05:07:20.728Z,102149.53
2023-05-16T05:09:47.424Z,102144.81
2023-05-16T05:12:13.784Z,102147.03
2023-05-16T05:14:52.876Z,102143.34
2023-05-16T05:17:23.527Z,102144.53
2023-05-16T05:19:53.487Z,102136.13
2023-05-16T05:22:19.827Z,102141.28
2023-05-16T05:24:48.647Z,102154.97
2023-05-16T05:27:18.120Z,102147.81
2023-05-16T05:29:44.865Z,102148.06
2023-05-16T05:32:20.326Z,102152.59
2023-05-16T05:34:46.769Z,102156.69
2023-05-16T05:37:26.237Z,102162.50
2023-05-16T05:45:21.176Z,102168.38
2023-05-16T05:47:51.007Z,102173.16
2023-05-16T05:50:21.566Z,102162.63
2023-05-16T05:52:50.661Z,102171.56
2023-05-16T05:55:17.105Z,102162.63
2023-05-16T06:00:36.333Z,102173.28
2023-05-16T06:03:02.735Z,102170.69
2023-05-16T06:05:39.246Z,102178.47
2023-05-16T06:08:05.714Z,102176.22
2023-05-16T06:10:36.570Z,102186.75
2023-05-16T06:13:02.970Z,102186.84
2023-05-16T06:15:29.453Z,102198.09
2023-05-16T06:17:58.673Z,102208.44
2023-05-16T06:20:28.453Z,102212.19
2023-05-16T06:22:58.949Z,102213.78
2023-05-16T06:25:25.708Z,102222.09
2023-05-16T06:27:52.532Z,102230.63
2023-05-16T06:30:18.981Z,102226.78
2023-05-16T06:32:45.707Z,102224.50
2023-05-16T06:35:14.512Z,102230.81
2023-05-16T06:37:42.903Z,102230.47
2023-05-16T06:40:12.900Z,102225.06
2023-05-16T06:42:42.419Z,102223.97
2023-05-16T06:45:11.859Z,102215.63
2023-05-16T06:47:45.062Z,102219.69
2023-05-16T06:50:11.585Z,102223.28
2023-05-16T06:52:46.496Z,102235.28
2023-05-16T06:55:13.002Z,102216.44
2023-05-16T06:57:45.973Z,102225.22
2023-05-16T07:00:13.676Z,102228.41
2023-05-16T07:02:40.207Z,102228.03
2023-05-16T07:05:16.391Z,102224.13
2023-05-16T07:07:42.909Z,102223.47
2023-05-16T07:10:13.782Z,102224.88
2023-05-16T07:12:41.762Z,102222.88
2023-05-16T07:15:11.027Z,102228.41
2023-05-16T07:17:38.868Z,102229.09
2023-05-16T07:20:07.219Z,102235.28
2023-05-16T07:22:36.305Z,102234.75
2023-05-16T07:25:03.035Z,102233.34
2023-05-16T07:27:32.954Z,102244.47
2023-05-16T07:29:59.435Z,102236.28
2023-05-16T07:32:28.339Z,102237.81
2023-05-16T07:34:54.840Z,102235.69
2023-05-16T07:37:21.283Z,102237.22
2023-05-16T07:39:51.201Z,102241.03
2023-05-16T07:42:20.479Z,102233.28
2023-05-16T07:44:47.021Z,102238.06
2023-05-16T07:47:16.697Z,102233.88
2023-05-16T07:49:46.145Z,102233.03
2023-05-16T07:52:12.513Z,102238.91
2023-05-16T07:54:40.294Z,102241.78
2023-05-16T07:57:09.589Z,102244.41
2023-05-16T07:59:36.214Z,102238.66
2023-05-16T08:02:16.533Z,102250.06
2023-05-16T08:04:45.409Z,102269.22
2023-05-16T08:07:16.236Z,102268.25
2023-05-16T08:09:42.753Z,102276.53
2023-05-16T08:12:13.732Z,102270.72
2023-05-16T08:14:43.318Z,102286.91
2023-05-16T08:17:12.332Z,102281.59
2023-05-16T08:19:39.331Z,102279.59
2023-05-16T08:22:07.538Z,102268.34
2023-05-16T08:24:36.577Z,102261.56
2023-05-16T08:27:03.272Z,102264.25
2023-05-16T08:29:32.924Z,102259.59
2023-05-16T08:31:59.711Z,102257.06
2023-05-16T08:34:29.553Z,102251.56
2023-05-16T08:36:56.251Z,102250.97
2023-05-16T08:39:22.652Z,102246.81
2023-05-16T08:41:54.588Z,102245.34
2023-05-16T08:44:23.790Z,102239.59
2023-05-16T08:47:05.542Z,102252.09
2023-05-16T08:49:38.993Z,102245.44
2023-05-16T08:52:08.721Z,102239.53
2023-05-16T08:54:36.533Z,102239.44
2023-05-16T08:57:03.872Z,102247.19
2023-05-16T08:59:30.830Z,102246.81
2023-05-16T09:01:57.549Z,102246.38
2023-05-16T09:04:32.772Z,102250.06
2023-05-16T09:06:59.428Z,102255.16
2023-05-16T09:09:30.789Z,102254.59
2023-05-16T09:12:00.112Z,102258.13
2023-05-16T09:14:26.776Z,102265.59
2023-05-16T09:17:06.382Z,102260.31
2023-05-16T09:19:44.441Z,102264.34
2023-05-16T09:25:02.609Z,102264.53
2023-05-16T09:27:33.413Z,102265.94
2023-05-16T09:30:08.894Z,102252.69
2023-05-16T09:32:35.311Z,102261.84
2023-05-16T09:35:01.720Z,102262.72
2023-05-16T09:37:37.767Z,102268.38
2023-05-16T09:40:10.048Z,102261.44
2023-05-16T09:42:39.625Z,102261.16
2023-05-16T09:45:09.652Z,102254.00
2023-05-16T09:47:36.133Z,102243.53
2023-05-16T09:50:02.731Z,102255.09
2023-05-16T09:52:29.927Z,102261.03
2023-05-16T09:55:05.680Z,102257.22
2023-05-16T09:57:32.803Z,102268.88
2023-05-16T10:00:09.071Z,102267.78
2023-05-16T10:02:37.521Z,102261.78
2023-05-16T10:05:07.890Z,102254.31
2023-05-16T10:07:35.171Z,102255.00
2023-05-16T10:10:11.214Z,102262.53
2023-05-16T10:12:38.750Z,102244.72
2023-05-16T10:15:14.400Z,102278.81
2023-05-16T10:17:45.569Z,102259.81
2023-05-16T10:20:16.790Z,102262.63
2023-05-16T10:22:47.645Z,102259.31
2023-05-16T10:25:31.758Z,102257.63
2023-05-16T10:28:01.173Z,102268.41
2023-05-16T10:30:33.297Z,102255.47
2023-05-16T10:33:12.322Z,102265.31
2023-05-16T10:35:39.202Z,102261.97
2023-05-16T10:38:09.638Z,102262.06
2023-05-16T10:40:38.289Z,102266.09
2023-05-16T10:45:55.092Z,102250.25
2023-05-16T10:48:30.978Z,102255.78
2023-05-16T10:51:04.363Z,102259.91
2023-05-16T10:53:37.164Z,102264.03
2023-05-16T10:56:09.091Z,102253.00
2023-05-16T10:58:43.258Z,102257.66
2023-05-16T11:01:18.618Z,102250.13
2023-05-16T11:03:57.189Z,102249.25
2023-05-16T11:06:33.256Z,102249.50
2023-05-16T11:09:19.789Z,102250.72
2023-05-16T11:11:59.807Z,102268.28
2023-05-16T11:14:53.877Z,102253.41
2023-05-16T11:17:24.260Z,102250.75
2023-05-16T11:20:04.036Z,102253.25
2023-05-16T11:22:48.203Z,102261.41
2023-05-16T11:25:43.915Z,102259.22
2023-05-16T11:28:12.030Z,102258.00
2023-05-16T11:31:17.188Z,102261.38
2023-05-16T11:33:44.993Z,102261.66
2023-05-16T11:36:16.450Z,102274.97
2023-05-16T11:38:44.365Z,102273.19
2023-05-16T11:41:15.557Z,102277.47
2023-05-16T11:44:11.205Z,102279.13
2023-05-16T11:46:40.930Z,102275.81
2023-05-16T11:49:09.605Z,102279.81
2023-05-16T11:51:46.292Z,102286.94
2023-05-16T11:54:22.836Z,102285.94
2023-05-16T11:56:58.313Z,102287.25
2023-05-16T11:59:24.779Z,102285.75
2023-05-16T12:01:51.250Z,102279.59
2023-05-16T12:04:20.914Z,102295.56
2023-05-16T12:07:02.863Z,102290.63
2023-05-16T12:09:32.064Z,102288.38
2023-05-16T12:12:00.083Z,102291.22
2023-05-16T12:14:37.197Z,102291.91
2023-05-16T12:17:06.477Z,102282.47
2023-05-16T12:19:36.654Z,102284.78
2023-05-16T12:22:05.178Z,102283.44
2023-05-16T12:24:41.742Z,102283.31
2023-05-16T12:29:55.763Z,102293.19
2023-05-16T12:32:24.972Z,102292.50
2023-05-16T12:37:39.407Z,102293.53
2023-05-16T12:40:11.126Z,102294.56
2023-05-16T12:42:51.826Z,102305.16
2023-05-16T12:45:20.942Z,102294.97
2023-05-16T12:47:49.967Z,102302.50
2023-05-16T12:50:27.413Z,102298.19
2023-05-16T12:53:00.012Z,102291.63
2023-05-16T12:55:32.173Z,102293.41
2023-05-16T12:58:03.061Z,102295.44
2023-05-16T13:00:33.674Z,102293.41
2023-05-16T13:03:04.725Z,102300.91
2023-05-16T13:05:57.123Z,102296.75
2023-05-16T13:08:30.198Z,102298.00
2023-05-16T13:11:00.486Z,102304.78
2023-05-16T13:16:04.261Z,102306.19
2023-05-16T13:18:34.563Z,102296.72
2023-05-16T13:21:03.816Z,102299.50
2023-05-16T13:23:38.226Z,102302.00
2023-05-16T13:28:49.910Z,102297.97
2023-05-16T13:31:20.504Z,102303.38
2023-05-16T13:33:47.553Z,102308.22
2023-05-16T13:36:15.458Z,102306.03
2023-05-16T13:38:44.696Z,102308.75
2023-05-16T13:41:11.115Z,102306.63
2023-05-16T13:43:37.883Z,102314.72
2023-05-16T13:46:06.725Z,102308.63
2023-05-16T13:48:33.169Z,102294.28
2023-05-16T13:51:00.213Z,102294.72
2023-05-16T13:53:32.675Z,102290.09
2023-05-16T13:55:59.070Z,102296.72
2023-05-16T13:58:27.956Z,102298.69
2023-05-16T14:00:57.510Z,102292.31
2023-05-16T14:03:32.583Z,102299.91
2023-05-16T14:05:59.106Z,102301.69
2023-05-16T14:08:25.627Z,102306.44
2023-05-16T14:10:56.680Z,102297.16
2023-05-16T14:13:23.053Z,102301.56
2023-05-16T14:15:49.533Z,102303.97
2023-05-16T14:18:24.850Z,102308.63
2023-05-16T14:20:51.552Z,102311.03
2023-05-16T14:23:21.152Z,102304.91
2023-05-16T14:25:51.282Z,102307.91
2023-05-16T14:28:20.305Z,102305.91
2023-05-16T14:30:51.873Z,102301.66
2023-05-16T14:33:18.430Z,102309.81
2023-05-16T14:35:50.586Z,102307.53
2023-05-16T14:38:17.001Z,102302.88
2023-05-16T14:40:45.546Z,102308.66
2023-05-16T14:43:15.184Z,102307.66
2023-05-16T14:45:41.676Z,102307.44
2023-05-16T14:48:08.662Z,102303.09
2023-05-16T14:50:44.493Z,102302.75
2023-05-16T14:53:10.950Z,102302.59
2023-05-16T14:55:37.845Z,102308.63
2023-05-16T14:58:08.615Z,102309.41
2023-05-16T15:00:35.182Z,102306.34
2023-05-16T15:03:06.289Z,102309.31
2023-05-16T15:05:33.045Z,102302.38
2023-05-16T15:08:00.271Z,102305.56
2023-05-16T15:10:35.877Z,102314.66
2023-05-16T15:13:02.409Z,102310.53
2023-05-16T15:15:38.913Z,102308.81
2023-05-16T15:18:05.579Z,102304.78
2023-05-16T15:20:41.335Z,102312.63
2023-05-16T15:23:07.786Z,102314.63
2023-05-16T15:25:38.357Z,102312.00
2023-05-16T15:28:07.677Z,102313.78
2023-05-16T15:30:37.241Z,102305.56
2023-05-16T15:33:03.775Z,102314.38
2023-05-16T15:35:34.442Z,102316.72
2023-05-16T15:38:03.846Z,102315.72
2023-05-16T15:40:33.130Z,102319.75
2023-05-16T15:42:59.575Z,102320.38
2023-05-16T15:45:30.953Z,102319.69
2023-05-16T15:48:02.940Z,102318.03
2023-05-16T15:50:38.486Z,102325.84
2023-05-16T15:53:04.934Z,102325.53
2023-05-16T15:55:35.221Z,102327.34
2023-05-16T15:58:05.423Z,102331.84
2023-05-16T16:00:31.829Z,102332.63
2023-05-16T16:03:05.233Z,102324.84
2023-05-16T16:05:31.775Z,102333.19
2023-05-16T16:08:03.298Z,102327.41
2023-05-16T16:10:29.910Z,102339.78
2023-05-16T16:13:06.163Z,102333.28
2023-05-16T16:15:33.479Z,102340.28
2023-05-16T16:18:08.351Z,102344.53
2023-05-16T16:20:34.926Z,102340.53
2023-05-16T16:23:01.460Z,102336.84
2023-05-16T16:25:30.644Z,102342.41
2023-05-16T16:28:00.636Z,102339.31
2023-05-16T16:30:30.698Z,102342.25
2023-05-16T16:33:00.602Z,102335.94
2023-05-16T16:35:27.360Z,102343.63
2023-05-16T16:38:06.755Z,102342.94
2023-05-16T16:40:37.432Z,102351.56
2023-05-16T16:43:07.812Z,102350.34
2023-05-16T16:45:34.277Z,102353.16
2023-05-16T16:48:03.070Z,102351.31
2023-05-16T16:50:34.354Z,102354.94
2023-05-16T16:55:50.758Z,102360.88
2023-05-16T16:58:20.877Z,102361.94
2023-05-16T17:00:48.391Z,102356.75
2023-05-16T17:03:15.184Z,102361.41
2023-05-16T17:05:45.766Z,102358.19
2023-05-16T17:08:17.308Z,102368.13
2023-05-16T17:10:43.707Z,102367.22
2023-05-16T17:13:14.762Z,102366.97
2023-05-16T17:15:41.412Z,102362.50
2023-05-16T17:18:07.999Z,102364.84
2023-05-16T17:20:37.885Z,102369.59
2023-05-16T17:23:05.450Z,102375.03
2023-05-16T17:25:32.325Z,102372.97
2023-05-16T17:27:58.735Z,102383.22
2023-05-16T17:30:27.970Z,102384.59
2023-05-16T17:32:57.516Z,102388.66
2023-05-16T17:35:24.205Z,102382.63
2023-05-16T17:37:53.796Z,102382.75
2023-05-16T17:40:20.655Z,102381.50
2023-05-16T17:42:47.208Z,102384.19
2023-05-16T17:45:17.643Z,102385.63
2023-05-16T17:47:44.169Z,102390.34
2023-05-16T17:50:11.001Z,102390.31
2023-05-16T17:52:40.400Z,102394.59
2023-05-16T17:55:10.221Z,102390.69
2023-05-16T17:57:40.183Z,102383.44
2023-05-16T18:00:14.536Z,102395.25
2023-05-16T18:02:44.460Z,102401.50
2023-05-16T18:05:16.325Z,102408.00
2023-05-16T18:07:51.106Z,102412.41
2023-05-16T18:10:17.649Z,102413.94
2023-05-16T18:12:44.205Z,102411.81
2023-05-16T18:15:20.058Z,102418.34
2023-05-16T18:17:46.536Z,102416.41
2023-05-16T18:20:15.984Z,102419.75
2023-05-16T18:22:46.260Z,102423.75
2023-05-16T18:25:16.968Z,102428.09
2023-05-16T18:27:45.969Z,102421.13
2023-05-16T18:30:13.364Z,102423.34
2023-05-16T18:32:48.645Z,102424.63
2023-05-16T18:35:15.341Z,102433.69
2023-05-16T18:37:47.555Z,102432.56
2023-05-16T18:40:14.180Z,102432.16
2023-05-16T18:42:40.751Z,102426.09
2023-05-16T18:45:12.274Z,102432.09
2023-05-16T18:47:38.971Z,102433.31
2023-05-16T18:50:09.360Z,102439.03
2023-05-16T18:52:44.335Z,102439.31
2023-05-16T18:55:14.632Z,102435.72
2023-05-16T18:57:47.218Z,102438.09
2023-05-16T19:00:25.666Z,102445.44
2023-05-16T19:02:52.212Z,102445.16
2023-05-16T19:05:22.990Z,102445.13
2023-05-16T19:07:49.648Z,102446.81
2023-05-16T19:10:16.190Z,102453.84
2023-05-16T19:12:52.579Z,102459.50
2023-05-16T19:15:19.070Z,102466.84
2023-05-16T19:17:53.889Z,102461.44
2023-05-16T19:20:20.500Z,102469.84
2023-05-16T19:22:47.946Z,102472.06
2023-05-16T19:25:14.424Z,102477.03
2023-05-16T19:27:40.826Z,102469.69
2023-05-16T19:30:07.869Z,102478.66
2023-05-16T19:32:38.244Z,102479.03
2023-05-16T19:35:06.383Z,102479.69
2023-05-16T19:37:41.668Z,102490.72
2023-05-16T19:40:08.657Z,102480.59
2023-05-16T19:42:35.150Z,102490.53
2023-05-16T19:45:07.204Z,102482.78
2023-05-16T19:47:37.805Z,102489.38
2023-05-16T19:50:08.658Z,102488.84
2023-05-16T19:52:38.020Z,102493.13
2023-05-16T19:55:11.373Z,102489.91
2023-05-16T19:57:40.664Z,102493.06
2023-05-16T20:00:29.597Z,102495.69
2023-05-16T20:02:56.556Z,102494.03
2023-05-16T20:05:23.505Z,102489.59
2023-05-16T20:07:50.363Z,102494.75
2023-05-16T20:10:21.912Z,102491.97
2023-05-16T20:12:51.339Z,102496.41
2023-05-16T20:15:18.796Z,102499.59
2023-05-16T20:17:45.565Z,102495.03
2023-05-16T20:20:16.297Z,102493.81
2023-05-16T20:22:46.148Z,102497.28
2023-05-16T20:25:15.475Z,102495.47
2023-05-16T20:27:44.512Z,102497.28
2023-05-16T20:30:11.844Z,102494.09
2023-05-16T20:32:38.311Z,102496.13
2023-05-16T20:37:55.375Z,102504.34
2023-05-16T20:40:22.970Z,102504.72
2023-05-16T20:42:49.667Z,102515.75
2023-05-16T20:45:16.462Z,102518.78
2023-05-16T20:47:46.702Z,102519.50
2023-05-16T20:50:13.190Z,102518.34
2023-05-16T20:52:43.012Z,102523.97
2023-05-16T20:55:12.550Z,102526.25
2023-05-16T20:57:40.758Z,102525.09
2023-05-16T21:00:16.374Z,102523.44
2023-05-16T21:02:57.416Z,102522.84
2023-05-16T21:05:25.850Z,102524.88
2023-05-16T21:08:00.247Z,102540.19
2023-05-16T21:10:29.142Z,102529.31
2023-05-16T21:12:58.371Z,102532.91
2023-05-16T21:15:25.259Z,102537.44
2023-05-16T21:17:51.932Z,102532.56
2023-05-16T21:20:18.877Z,102540.81
2023-05-16T21:22:45.442Z,102534.97
2023-05-16T21:25:11.854Z,102535.19
2023-05-16T21:27:46.470Z,102539.72
2023-05-16T21:30:13.461Z,102540.09
2023-05-16T21:32:53.895Z,102547.38
2023-05-16T21:35:21.999Z,102546.66
2023-05-16T21:37:48.418Z,102539.97
2023-05-16T21:40:18.904Z,102543.81
2023-05-16T21:42:46.869Z,102543.19
2023-05-16T21:45:20.036Z,102540.66
2023-05-16T21:47:50.209Z,102542.56
2023-05-16T21:50:21.533Z,102549.84
2023-05-16T21:52:47.905Z,102554.38
2023-05-16T21:55:16.217Z,102552.81
2023-05-16T21:57:45.546Z,102554.03
2023-05-16T22:00:12.944Z,102554.88
2023-05-16T22:02:42.450Z,102562.84
2023-05-16T22:05:09.497Z,102555.19
2023-05-16T22:07:36.626Z,102564.03
2023-05-16T22:10:12.065Z,102562.84
2023-05-16T22:12:38.739Z,102564.00
2023-05-16T22:15:14.112Z,102564.97
2023-05-16T22:17:41.796Z,102567.09
2023-05-16T22:20:11.893Z,102564.47
2023-05-16T22:22:38.445Z,102559.34
2023-05-16T22:25:05.287Z,102561.34
2023-05-16T22:27:35.436Z,102560.66
2023-05-16T22:30:05.171Z,102559.09
2023-05-16T22:32:37.113Z,102569.91
2023-05-16T22:35:04.941Z,102566.56
2023-05-16T22:37:31.362Z,102564.91
2023-05-16T22:40:03.018Z,102564.19
2023-05-16T22:42:31.204Z,102559.91
2023-05-16T22:47:39.574Z,102569.88
2023-05-16T22:50:16.722Z,102565.00
2023-05-16T22:52:46.955Z,102579.06
2023-05-16T22:55:16.152Z,102576.78
2023-05-16T22:57:43.921Z,102581.41
2023-05-16T23:00:22.688Z,102579.69
2023-05-16T23:02:50.874Z,102580.03
2023-05-16T23:05:17.682Z,102578.38
2023-05-16T23:07:47.954Z,102581.13
2023-05-16T23:10:17.307Z,102578.72
2023-05-16T23:12:46.754Z,102570.25
2023-05-16T23:15:15.404Z,102582.50
2023-05-16T23:17:41.927Z,102566.19
2023-05-16T23:20:11.778Z,102579.41
2023-05-16T23:22:38.240Z,102578.78
2023-05-16T23:25:11.468Z,102579.75
2023-05-16T23:27:37.878Z,102589.47
2023-05-16T23:30:15.328Z,102586.13
2023-05-16T23:32:41.847Z,102595.88
2023-05-16T23:35:11.725Z,102604.06
2023-05-16T23:37:40.901Z,102602.00
2023-05-16T23:40:09.165Z,102601.16
2023-05-16T23:42:42.247Z,102593.84
2023-05-16T23:45:09.246Z,102598.28
2023-05-16T23:47:36.794Z,102594.28
2023-05-16T23:50:07.067Z,102592.53
2023-05-16T23:52:33.495Z,102594.28
2023-05-16T23:55:03.357Z,102596.16
2023-05-16T23:57:32.502Z,102604.75
